sensor_id;sensor_type;location;lat;lon;timestamp;P1;durP1;ratioP1;P2;durP2;ratioP2
46006;SDS011;31738;50.188;8.524;2023-05-10T00:00:57;3.63;;;0.40;;
46006;SDS011;31738;50.188;8.524;2023-05-10T00:03:22;0.57;;;0.20;;
46006;SDS011;31738;50.188;8.524;2023-05-10T00:05:47;0.90;;;0.32;;
46006;SDS011;31738;50.188;8.524;2023-05-10T00:08:13;1.00;;;0.20;;
46006;SDS011;31738;50.188;8.524;2023-05-10T00:10:38;0.17;;;0.17;;
46006;SDS011;31738;50.188;8.524;2023-05-10T00:13:04;0.20;;;0.20;;
46006;SDS011;31738;50.188;8.524;2023-05-10T00:15:29;0.63;;;0.20;;
46006;SDS011;31738;50.188;8.524;2023-05-10T00:17:59;0.20;;;0.10;;
46006;SDS011;31738;50.188;8.524;2023-05-10T00:20:25;0.55;;;0.15;;
46006;SDS011;31738;50.188;8.524;2023-05-10T00:22:50;0.80;;;0.15;;
46006;SDS011;31738;50.188;8.524;2023-05-10T00:25:16;1.95;;;0.25;;
46006;SDS011;31738;50.188;8.524;2023-05-10T00:27:41;2.00;;;0.20;;
46006;SDS011;31738;50.188;8.524;2023-05-10T00:30:07;2.17;;;0.22;;
46006;SDS011;31738;50.188;8.524;2023-05-10T00:32:34;1.27;;;0.13;;
46006;SDS011;31738;50.188;8.524;2023-05-10T00:35:00;1.65;;;0.20;;
46006;SDS011;31738;50.188;8.524;2023-05-10T00:37:26;3.28;;;0.32;;
46006;SDS011;31738;50.188;8.524;2023-05-10T00:39:51;0.85;;;0.20;;
46006;SDS011;31738;50.188;8.524;2023-05-10T00:42:17;0.30;;;0.10;;
46006;SDS011;31738;50.188;8.524;2023-05-10T00:44:42;1.88;;;0.25;;
46006;SDS011;31738;50.188;8.524;2023-05-10T00:47:10;1.40;;;0.30;;
46006;SDS011;31738;50.188;8.524;2023-05-10T00:49:36;0.55;;;0.30;;
46006;SDS011;31738;50.188;8.524;2023-05-10T00:52:02;2.63;;;0.40;;
46006;SDS011;31738;50.188;8.524;2023-05-10T00:54:28;0.10;;;0.10;;
46006;SDS011;31738;50.188;8.524;2023-05-10T00:56:54;2.15;;;0.50;;
46006;SDS011;31738;50.188;8.524;2023-05-10T00:59:22;3.60;;;0.20;;
46006;SDS011;31738;50.188;8.524;2023-05-10T01:01:48;0.15;;;0.13;;
46006;SDS011;31738;50.188;8.524;2023-05-10T01:04:14;1.02;;;0.30;;
46006;SDS011;31738;50.188;8.524;2023-05-10T01:06:41;0.52;;;0.28;;
46006;SDS011;31738;50.188;8.524;2023-05-10T01:09:07;0.50;;;0.30;;
46006;SDS011;31738;50.188;8.524;2023-05-10T01:11:34;0.57;;;0.17;;
46006;SDS011;31738;50.188;8.524;2023-05-10T01:14:01;2.85;;;0.28;;
46006;SDS011;31738;50.188;8.524;2023-05-10T01:16:27;1.48;;;0.20;;
46006;SDS011;31738;50.188;8.524;2023-05-10T01:18:57;0.50;;;0.28;;
46006;SDS011;31738;50.188;8.524;2023-05-10T01:27:02;0.43;;;0.25;;
46006;SDS011;31738;50.188;8.524;2023-05-10T01:29:47;0.75;;;0.10;;
46006;SDS011;31738;50.188;8.524;2023-05-10T01:38:21;3.53;;;0.40;;
46006;SDS011;31738;50.188;8.524;2023-05-10T01:43:37;0.57;;;0.30;;
46006;SDS011;31738;50.188;8.524;2023-05-10T01:46:10;1.35;;;0.35;;
46006;SDS011;31738;50.188;8.524;2023-05-10T01:48:43;1.67;;;0.20;;
46006;SDS011;31738;50.188;8.524;2023-05-10T01:51:31;2.47;;;0.30;;
46006;SDS011;31738;50.188;8.524;2023-05-10T01:54:04;0.52;;;0.30;;
46006;SDS011;31738;50.188;8.524;2023-05-10T01:56:32;2.05;;;0.30;;
46006;SDS011;31738;50.188;8.524;2023-05-10T01:59:00;1.38;;;0.30;;
46006;SDS011;31738;50.188;8.524;2023-05-10T02:01:29;1.60;;;0.30;;
46006;SDS011;31738;50.188;8.524;2023-05-10T02:03:56;1.38;;;0.40;;
46006;SDS011;31738;50.188;8.524;2023-05-10T02:06:23;0.80;;;0.20;;
46006;SDS011;31738;50.188;8.524;2023-05-10T02:08:50;1.83;;;0.50;;
46006;SDS011;31738;50.188;8.524;2023-05-10T02:11:17;1.48;;;0.20;;
46006;SDS011;31738;50.188;8.524;2023-05-10T02:13:46;1.98;;;0.40;;
46006;SDS011;31738;50.188;8.524;2023-05-10T02:16:16;3.05;;;0.30;;
46006;SDS011;31738;50.188;8.524;2023-05-10T02:18:46;1.27;;;0.30;;
46006;SDS011;31738;50.188;8.524;2023-05-10T02:21:13;2.08;;;0.30;;
46006;SDS011;31738;50.188;8.524;2023-05-10T02:23:42;1.08;;;0.38;;
46006;SDS011;31738;50.188;8.524;2023-05-10T02:26:08;0.45;;;0.30;;
46006;SDS011;31738;50.188;8.524;2023-05-10T02:28:35;3.45;;;0.50;;
46006;SDS011;31738;50.188;8.524;2023-05-10T02:31:02;1.83;;;0.47;;
46006;SDS011;31738;50.188;8.524;2023-05-10T02:33:28;2.97;;;0.40;;
46006;SDS011;31738;50.188;8.524;2023-05-10T02:35:55;0.88;;;0.40;;
46006;SDS011;31738;50.188;8.524;2023-05-10T02:38:21;4.20;;;0.52;;
46006;SDS011;31738;50.188;8.524;2023-05-10T02:40:49;1.05;;;0.50;;
46006;SDS011;31738;50.188;8.524;2023-05-10T02:43:16;2.65;;;0.40;;
46006;SDS011;31738;50.188;8.524;2023-05-10T02:45:43;4.80;;;0.40;;
46006;SDS011;31738;50.188;8.524;2023-05-10T02:48:12;2.22;;;0.88;;
46006;SDS011;31738;50.188;8.524;2023-05-10T02:50:38;3.50;;;0.50;;
46006;SDS011;31738;50.188;8.524;2023-05-10T02:53:15;1.52;;;0.50;;
46006;SDS011;31738;50.188;8.524;2023-05-10T02:55:45;1.05;;;0.60;;
46006;SDS011;31738;50.188;8.524;2023-05-10T02:58:14;4.30;;;1.38;;
46006;SDS011;31738;50.188;8.524;2023-05-10T03:00:39;5.22;;;0.63;;
46006;SDS011;31738;50.188;8.524;2023-05-10T03:03:06;1.00;;;0.52;;
46006;SDS011;31738;50.188;8.524;2023-05-10T03:05:32;1.15;;;0.60;;
46006;SDS011;31738;50.188;8.524;2023-05-10T03:08:00;4.75;;;0.77;;
46006;SDS011;31738;50.188;8.524;2023-05-10T03:10:29;1.58;;;1.05;;
46006;SDS011;31738;50.188;8.524;2023-05-10T03:13:07;1.05;;;0.60;;
46006;SDS011;31738;50.188;8.524;2023-05-10T03:18:21;5.40;;;0.80;;
46006;SDS011;31738;50.188;8.524;2023-05-10T03:20:49;1.75;;;0.63;;
46006;SDS011;31738;50.188;8.524;2023-05-10T03:26:08;2.95;;;0.77;;
46006;SDS011;31738;50.188;8.524;2023-05-10T03:28:35;2.38;;;0.60;;
46006;SDS011;31738;50.188;8.524;2023-05-10T03:31:03;4.45;;;0.70;;
46006;SDS011;31738;50.188;8.524;2023-05-10T03:33:31;1.58;;;0.88;;
46006;SDS011;31738;50.188;8.524;2023-05-10T03:35:58;1.08;;;0.75;;
46006;SDS011;31738;50.188;8.524;2023-05-10T03:38:25;3.35;;;0.60;;
46006;SDS011;31738;50.188;8.524;2023-05-10T03:40:50;3.63;;;0.60;;
46006;SDS011;31738;50.188;8.524;2023-05-10T03:43:16;1.80;;;0.68;;
46006;SDS011;31738;50.188;8.524;2023-05-10T03:45:41;3.17;;;0.80;;
46006;SDS011;31738;50.188;8.524;2023-05-10T03:48:07;0.77;;;0.70;;
46006;SDS011;31738;50.188;8.524;2023-05-10T03:50:32;4.10;;;0.75;;
46006;SDS011;31738;50.188;8.524;2023-05-10T03:52:58;1.00;;;0.60;;
46006;SDS011;31738;50.188;8.524;2023-05-10T03:55:23;0.70;;;0.68;;
46006;SDS011;31738;50.188;8.524;2023-05-10T03:57:49;1.33;;;0.80;;
46006;SDS011;31738;50.188;8.524;2023-05-10T04:00:15;3.42;;;0.85;;
46006;SDS011;31738;50.188;8.524;2023-05-10T04:02:41;2.05;;;0.75;;
46006;SDS011;31738;50.188;8.524;2023-05-10T04:05:10;3.92;;;1.20;;
46006;SDS011;31738;50.188;8.524;2023-05-10T04:07:36;5.47;;;1.05;;
46006;SDS011;31738;50.188;8.524;2023-05-10T04:10:01;3.10;;;1.10;;
46006;SDS011;31738;50.188;8.524;2023-05-10T04:12:27;2.13;;;1.17;;
46006;SDS011;31738;50.188;8.524;2023-05-10T04:14:52;6.55;;;1.55;;
46006;SDS011;31738;50.188;8.524;2023-05-10T04:17:18;7.38;;;1.55;;
46006;SDS011;31738;50.188;8.524;2023-05-10T04:19:43;2.78;;;1.45;;
46006;SDS011;31738;50.188;8.524;2023-05-10T04:22:09;2.30;;;1.77;;
46006;SDS011;31738;50.188;8.524;2023-05-10T04:24:34;5.32;;;2.15;;
46006;SDS011;31738;50.188;8.524;2023-05-10T04:27:00;3.75;;;2.00;;
46006;SDS011;31738;50.188;8.524;2023-05-10T04:29:25;4.60;;;1.98;;
46006;SDS011;31738;50.188;8.524;2023-05-10T04:31:52;3.72;;;1.98;;
46006;SDS011;31738;50.188;8.524;2023-05-10T04:34:20;2.45;;;1.90;;
46006;SDS011;31738;50.188;8.524;2023-05-10T04:36:45;3.83;;;2.00;;
46006;SDS011;31738;50.188;8.524;2023-05-10T04:39:11;5.57;;;2.28;;
46006;SDS011;31738;50.188;8.524;2023-05-10T04:41:37;6.90;;;2.65;;
46006;SDS011;31738;50.188;8.524;2023-05-10T04:44:03;4.15;;;2.42;;
46006;SDS011;31738;50.188;8.524;2023-05-10T04:46:28;3.97;;;2.55;;
46006;SDS011;31738;50.188;8.524;2023-05-10T04:48:54;5.03;;;2.53;;
46006;SDS011;31738;50.188;8.524;2023-05-10T04:51:19;6.32;;;3.33;;
46006;SDS011;31738;50.188;8.524;2023-05-10T04:53:45;4.88;;;3.00;;
46006;SDS011;31738;50.188;8.524;2023-05-10T04:56:11;6.65;;;3.50;;
46006;SDS011;31738;50.188;8.524;2023-05-10T04:58:36;6.47;;;3.88;;
46006;SDS011;31738;50.188;8.524;2023-05-10T05:01:05;7.22;;;4.07;;
46006;SDS011;31738;50.188;8.524;2023-05-10T05:03:32;8.48;;;5.03;;
46006;SDS011;31738;50.188;8.524;2023-05-10T05:05:57;8.30;;;4.82;;
46006;SDS011;31738;50.188;8.524;2023-05-10T05:08:23;9.70;;;5.03;;
46006;SDS011;31738;50.188;8.524;2023-05-10T05:10:51;8.23;;;4.53;;
46006;SDS011;31738;50.188;8.524;2023-05-10T05:13:17;9.25;;;4.63;;
46006;SDS011;31738;50.188;8.524;2023-05-10T05:15:42;6.47;;;4.35;;
46006;SDS011;31738;50.188;8.524;2023-05-10T05:18:08;9.30;;;5.47;;
46006;SDS011;31738;50.188;8.524;2023-05-10T05:20:33;10.07;;;5.40;;
46006;SDS011;31738;50.188;8.524;2023-05-10T05:23:01;7.13;;;4.60;;
46006;SDS011;31738;50.188;8.524;2023-05-10T05:25:27;8.52;;;5.05;;
46006;SDS011;31738;50.188;8.524;2023-05-10T05:27:53;6.90;;;4.68;;
46006;SDS011;31738;50.188;8.524;2023-05-10T05:30:18;8.65;;;4.55;;
46006;SDS011;31738;50.188;8.524;2023-05-10T05:32:44;12.10;;;5.22;;
46006;SDS011;31738;50.188;8.524;2023-05-10T05:35:09;7.00;;;5.18;;
46006;SDS011;31738;50.188;8.524;2023-05-10T05:37:35;10.00;;;5.28;;
46006;SDS011;31738;50.188;8.524;2023-05-10T05:40:00;7.85;;;4.28;;
46006;SDS011;31738;50.188;8.524;2023-05-10T05:42:27;5.07;;;3.95;;
46006;SDS011;31738;50.188;8.524;2023-05-10T05:44:52;6.18;;;4.35;;
46006;SDS011;31738;50.188;8.524;2023-05-10T05:47:18;9.13;;;4.50;;
46006;SDS011;31738;50.188;8.524;2023-05-10T05:49:43;5.35;;;3.53;;
46006;SDS011;31738;50.188;8.524;2023-05-10T05:52:11;6.63;;;3.65;;
46006;SDS011;31738;50.188;8.524;2023-05-10T05:54:36;5.40;;;3.80;;
46006;SDS011;31738;50.188;8.524;2023-05-10T05:57:02;8.60;;;4.15;;
46006;SDS011;31738;50.188;8.524;2023-05-10T05:59:27;5.57;;;3.95;;
46006;SDS011;31738;50.188;8.524;2023-05-10T06:01:53;8.10;;;4.10;;
46006;SDS011;31738;50.188;8.524;2023-05-10T06:04:18;8.30;;;4.18;;
46006;SDS011;31738;50.188;8.524;2023-05-10T06:06:44;5.75;;;3.65;;
46006;SDS011;31738;50.188;8.524;2023-05-10T06:09:10;5.70;;;3.70;;
46006;SDS011;31738;50.188;8.524;2023-05-10T06:14:30;5.95;;;3.90;;
46006;SDS011;31738;50.188;8.524;2023-05-10T06:16:55;6.70;;;3.83;;
46006;SDS011;31738;50.188;8.524;2023-05-10T06:19:21;14.00;;;4.18;;
46006;SDS011;31738;50.188;8.524;2023-05-10T06:21:46;9.52;;;4.28;;
46006;SDS011;31738;50.188;8.524;2023-05-10T06:24:19;4.82;;;4.07;;
46006;SDS011;31738;50.188;8.524;2023-05-10T06:26:45;8.40;;;4.47;;
46006;SDS011;31738;50.188;8.524;2023-05-10T06:29:10;9.30;;;4.90;;
46006;SDS011;31738;50.188;8.524;2023-05-10T06:31:38;9.32;;;5.30;;
46006;SDS011;31738;50.188;8.524;2023-05-10T06:34:06;8.60;;;4.60;;
46006;SDS011;31738;50.188;8.524;2023-05-10T06:36:33;7.38;;;4.53;;
46006;SDS011;31738;50.188;8.524;2023-05-10T06:39:01;8.80;;;5.25;;
46006;SDS011;31738;50.188;8.524;2023-05-10T06:41:26;7.18;;;5.40;;
46006;SDS011;31738;50.188;8.524;2023-05-10T06:43:52;11.65;;;5.40;;
46006;SDS011;31738;50.188;8.524;2023-05-10T06:46:17;12.80;;;5.93;;
46006;SDS011;31738;50.188;8.524;2023-05-10T06:48:43;7.50;;;4.78;;
46006;SDS011;31738;50.188;8.524;2023-05-10T06:51:08;10.82;;;5.10;;
46006;SDS011;31738;50.188;8.524;2023-05-10T06:53:34;8.07;;;4.57;;
46006;SDS011;31738;50.188;8.524;2023-05-10T06:55:59;5.15;;;3.85;;
46006;SDS011;31738;50.188;8.524;2023-05-10T06:58:25;9.07;;;3.60;;
46006;SDS011;31738;50.188;8.524;2023-05-10T07:00:50;8.25;;;3.33;;
46006;SDS011;31738;50.188;8.524;2023-05-10T07:03:15;3.72;;;2.65;;
46006;SDS011;31738;50.188;8.524;2023-05-10T07:05:41;5.22;;;2.97;;
46006;SDS011;31738;50.188;8.524;2023-05-10T07:08:07;6.80;;;3.15;;
46006;SDS011;31738;50.188;8.524;2023-05-10T07:10:33;5.07;;;2.97;;
46006;SDS011;31738;50.188;8.524;2023-05-10T07:12:58;4.60;;;2.60;;
46006;SDS011;31738;50.188;8.524;2023-05-10T07:15:25;4.53;;;2.72;;
46006;SDS011;31738;50.188;8.524;2023-05-10T07:17:50;4.80;;;3.40;;
46006;SDS011;31738;50.188;8.524;2023-05-10T07:20:17;6.00;;;3.58;;
46006;SDS011;31738;50.188;8.524;2023-05-10T07:22:42;6.25;;;4.20;;
46006;SDS011;31738;50.188;8.524;2023-05-10T07:25:07;9.32;;;3.80;;
46006;SDS011;31738;50.188;8.524;2023-05-10T07:27:33;5.57;;;3.20;;
46006;SDS011;31738;50.188;8.524;2023-05-10T07:29:58;6.32;;;3.45;;
46006;SDS011;31738;50.188;8.524;2023-05-10T07:32:24;6.50;;;3.05;;
46006;SDS011;31738;50.188;8.524;2023-05-10T07:34:49;6.47;;;2.67;;
46006;SDS011;31738;50.188;8.524;2023-05-10T07:37:15;5.50;;;2.72;;
46006;SDS011;31738;50.188;8.524;2023-05-10T07:39:40;7.30;;;2.90;;
46006;SDS011;31738;50.188;8.524;2023-05-10T07:42:06;6.80;;;2.75;;
46006;SDS011;31738;50.188;8.524;2023-05-10T07:44:32;4.85;;;2.58;;
46006;SDS011;31738;50.188;8.524;2023-05-10T07:46:57;6.60;;;2.90;;
46006;SDS011;31738;50.188;8.524;2023-05-10T07:49:23;6.43;;;3.10;;
46006;SDS011;31738;50.188;8.524;2023-05-10T07:51:51;5.85;;;3.72;;
46006;SDS011;31738;50.188;8.524;2023-05-10T07:54:16;9.52;;;4.70;;
46006;SDS011;31738;50.188;8.524;2023-05-10T07:56:42;5.47;;;4.10;;
46006;SDS011;31738;50.188;8.524;2023-05-10T07:59:15;8.75;;;4.28;;
46006;SDS011;31738;50.188;8.524;2023-05-10T08:01:42;8.40;;;4.30;;
46006;SDS011;31738;50.188;8.524;2023-05-10T08:04:08;10.20;;;4.18;;
46006;SDS011;31738;50.188;8.524;2023-05-10T08:06:34;10.82;;;3.30;;
46006;SDS011;31738;50.188;8.524;2023-05-10T08:08:59;6.32;;;3.20;;
46006;SDS011;31738;50.188;8.524;2023-05-10T08:11:25;6.75;;;2.97;;
46006;SDS011;31738;50.188;8.524;2023-05-10T08:13:53;6.80;;;3.13;;
46006;SDS011;31738;50.188;8.524;2023-05-10T08:16:18;5.32;;;2.90;;
46006;SDS011;31738;50.188;8.524;2023-05-10T08:18:45;5.38;;;2.83;;
46006;SDS011;31738;50.188;8.524;2023-05-10T08:21:12;7.63;;;2.83;;
46006;SDS011;31738;50.188;8.524;2023-05-10T08:23:37;5.97;;;3.05;;
46006;SDS011;31738;50.188;8.524;2023-05-10T08:26:03;6.18;;;3.03;;
46006;SDS011;31738;50.188;8.524;2023-05-10T08:28:29;4.97;;;2.80;;
46006;SDS011;31738;50.188;8.524;2023-05-10T08:30:55;4.57;;;2.63;;
46006;SDS011;31738;50.188;8.524;2023-05-10T08:33:21;8.77;;;3.65;;
46006;SDS011;31738;50.188;8.524;2023-05-10T08:35:46;9.30;;;2.72;;
46006;SDS011;31738;50.188;8.524;2023-05-10T08:38:12;4.28;;;2.88;;
46006;SDS011;31738;50.188;8.524;2023-05-10T08:40:38;8.27;;;2.85;;
46006;SDS011;31738;50.188;8.524;2023-05-10T08:43:09;6.40;;;3.00;;
46006;SDS011;31738;50.188;8.524;2023-05-10T08:45:40;8.48;;;2.90;;
46006;SDS011;31738;50.188;8.524;2023-05-10T08:48:08;7.47;;;3.10;;
46006;SDS011;31738;50.188;8.524;2023-05-10T08:50:39;5.93;;;2.60;;
46006;SDS011;31738;50.188;8.524;2023-05-10T08:53:06;5.05;;;2.50;;
46006;SDS011;31738;50.188;8.524;2023-05-10T08:55:37;7.43;;;2.65;;
46006;SDS011;31738;50.188;8.524;2023-05-10T08:58:04;4.22;;;2.60;;
46006;SDS011;31738;50.188;8.524;2023-05-10T09:00:30;3.03;;;2.42;;
46006;SDS011;31738;50.188;8.524;2023-05-10T09:02:57;4.05;;;2.70;;
46006;SDS011;31738;50.188;8.524;2023-05-10T09:05:23;9.93;;;2.30;;
46006;SDS011;31738;50.188;8.524;2023-05-10T09:07:49;5.25;;;2.22;;
46006;SDS011;31738;50.188;8.524;2023-05-10T09:10:14;6.35;;;2.38;;
46006;SDS011;31738;50.188;8.524;2023-05-10T09:12:40;6.45;;;2.25;;
46006;SDS011;31738;50.188;8.524;2023-05-10T09:15:06;6.47;;;2.10;;
46006;SDS011;31738;50.188;8.524;2023-05-10T09:17:34;5.03;;;2.22;;
46006;SDS011;31738;50.188;8.524;2023-05-10T09:20:00;5.00;;;2.25;;
46006;SDS011;31738;50.188;8.524;2023-05-10T09:22:27;9.40;;;2.50;;
46006;SDS011;31738;50.188;8.524;2023-05-10T09:25:09;4.72;;;2.10;;
46006;SDS011;31738;50.188;8.524;2023-05-10T09:27:40;9.55;;;2.35;;
46006;SDS011;31738;50.188;8.524;2023-05-10T09:30:06;5.57;;;2.10;;
46006;SDS011;31738;50.188;8.524;2023-05-10T09:32:40;3.92;;;2.20;;
46006;SDS011;31738;50.188;8.524;2023-05-10T09:35:13;6.53;;;2.10;;
46006;SDS011;31738;50.188;8.524;2023-05-10T09:37:41;5.95;;;3.00;;
46006;SDS011;31738;50.188;8.524;2023-05-10T09:40:11;6.60;;;2.30;;
46006;SDS011;31738;50.188;8.524;2023-05-10T09:42:38;3.17;;;2.20;;
46006;SDS011;31738;50.188;8.524;2023-05-10T09:45:04;6.65;;;2.63;;
46006;SDS011;31738;50.188;8.524;2023-05-10T09:47:36;3.95;;;1.67;;
46006;SDS011;31738;50.188;8.524;2023-05-10T09:50:02;3.15;;;2.00;;
46006;SDS011;31738;50.188;8.524;2023-05-10T09:52:30;5.50;;;1.95;;
46006;SDS011;31738;50.188;8.524;2023-05-10T09:55:10;4.53;;;2.20;;
46006;SDS011;31738;50.188;8.524;2023-05-10T09:57:35;3.88;;;2.10;;
46006;SDS011;31738;50.188;8.524;2023-05-10T10:00:01;4.47;;;2.60;;
46006;SDS011;31738;50.188;8.524;2023-05-10T10:02:38;2.75;;;2.00;;
46006;SDS011;31738;50.188;8.524;2023-05-10T10:05:05;4.70;;;1.98;;
46006;SDS011;31738;50.188;8.524;2023-05-10T10:07:31;7.05;;;2.25;;
46006;SDS011;31738;50.188;8.524;2023-05-10T10:09:58;3.65;;;2.05;;
46006;SDS011;31738;50.188;8.524;2023-05-10T10:12:24;81.20;;;14.98;;
46006;SDS011;31738;50.188;8.524;2023-05-10T10:14:50;6.70;;;2.92;;
46006;SDS011;31738;50.188;8.524;2023-05-10T10:17:16;4.47;;;1.80;;
46006;SDS011;31738;50.188;8.524;2023-05-10T10:19:42;3.90;;;1.60;;
46006;SDS011;31738;50.188;8.524;2023-05-10T10:22:08;4.20;;;2.10;;
46006;SDS011;31738;50.188;8.524;2023-05-10T10:24:37;4.13;;;2.05;;
46006;SDS011;31738;50.188;8.524;2023-05-10T10:27:23;2.95;;;1.88;;
46006;SDS011;31738;50.188;8.524;2023-05-10T10:30:04;4.22;;;2.20;;
46006;SDS011;31738;50.188;8.524;2023-05-10T10:32:57;5.57;;;2.78;;
46006;SDS011;31738;50.188;8.524;2023-05-10T10:35:33;9.07;;;3.42;;
46006;SDS011;31738;50.188;8.524;2023-05-10T10:37:59;6.63;;;2.70;;
46006;SDS011;31738;50.188;8.524;2023-05-10T10:40:29;8.10;;;2.70;;
46006;SDS011;31738;50.188;8.524;2023-05-10T10:42:56;5.30;;;2.30;;
46006;SDS011;31738;50.188;8.524;2023-05-10T10:45:24;8.23;;;2.38;;
46006;SDS011;31738;50.188;8.524;2023-05-10T10:48:18;6.03;;;2.28;;
46006;SDS011;31738;50.188;8.524;2023-05-10T10:50:46;5.88;;;1.98;;
46006;SDS011;31738;50.188;8.524;2023-05-10T10:53:11;5.93;;;2.67;;
46006;SDS011;31738;50.188;8.524;2023-05-10T10:55:47;4.35;;;2.03;;
46006;SDS011;31738;50.188;8.524;2023-05-10T10:58:29;3.70;;;2.33;;
46006;SDS011;31738;50.188;8.524;2023-05-10T11:03:40;3.38;;;2.35;;
46006;SDS011;31738;50.188;8.524;2023-05-10T11:06:28;3.70;;;2.10;;
46006;SDS011;31738;50.188;8.524;2023-05-10T11:08:57;7.78;;;2.30;;
46006;SDS011;31738;50.188;8.524;2023-05-10T11:11:23;2.53;;;1.92;;
46006;SDS011;31738;50.188;8.524;2023-05-10T11:13:48;7.93;;;2.30;;
46006;SDS011;31738;50.188;8.524;2023-05-10T11:16:22;3.05;;;1.90;;
46006;SDS011;31738;50.188;8.524;2023-05-10T11:21:29;3.67;;;2.20;;
46006;SDS011;31738;50.188;8.524;2023-05-10T11:23:56;8.90;;;1.90;;
46006;SDS011;31738;50.188;8.524;2023-05-10T11:26:30;5.13;;;1.98;;
46006;SDS011;31738;50.188;8.524;2023-05-10T11:28:56;3.85;;;1.90;;
46006;SDS011;31738;50.188;8.524;2023-05-10T11:31:23;4.22;;;1.48;;
46006;SDS011;31738;50.188;8.524;2023-05-10T11:33:55;6.15;;;2.03;;
46006;SDS011;31738;50.188;8.524;2023-05-10T11:36:22;3.97;;;1.58;;
46006;SDS011;31738;50.188;8.524;2023-05-10T11:38:53;4.03;;;1.50;;
46006;SDS011;31738;50.188;8.524;2023-05-10T11:41:19;3.10;;;1.17;;
46006;SDS011;31738;50.188;8.524;2023-05-10T11:43:47;5.03;;;1.15;;
46006;SDS011;31738;50.188;8.524;2023-05-10T11:46:15;3.92;;;1.00;;
46006;SDS011;31738;50.188;8.524;2023-05-10T11:48:43;1.67;;;1.30;;
46006;SDS011;31738;50.188;8.524;2023-05-10T11:51:09;1.77;;;1.00;;
46006;SDS011;31738;50.188;8.524;2023-05-10T11:53:36;4.75;;;1.20;;
46006;SDS011;31738;50.188;8.524;2023-05-10T11:56:12;3.10;;;1.17;;
46006;SDS011;31738;50.188;8.524;2023-05-10T11:58:38;6.43;;;1.63;;
46006;SDS011;31738;50.188;8.524;2023-05-10T12:01:05;7.03;;;2.90;;
46006;SDS011;31738;50.188;8.524;2023-05-10T12:03:32;3.13;;;1.30;;
46006;SDS011;31738;50.188;8.524;2023-05-10T12:05:58;11.07;;;4.40;;
46006;SDS011;31738;50.188;8.524;2023-05-10T12:08:26;3.95;;;1.35;;
46006;SDS011;31738;50.188;8.524;2023-05-10T12:10:53;3.72;;;1.10;;
46006;SDS011;31738;50.188;8.524;2023-05-10T12:13:28;1.05;;;0.80;;
46006;SDS011;31738;50.188;8.524;2023-05-10T12:15:54;2.55;;;1.05;;
46006;SDS011;31738;50.188;8.524;2023-05-10T12:18:23;1.70;;;1.00;;
46006;SDS011;31738;50.188;8.524;2023-05-10T12:20:52;1.55;;;0.90;;
46006;SDS011;31738;50.188;8.524;2023-05-10T12:23:21;2.92;;;1.25;;
46006;SDS011;31738;50.188;8.524;2023-05-10T12:25:46;3.45;;;1.17;;
46006;SDS011;31738;50.188;8.524;2023-05-10T12:28:11;0.80;;;0.80;;
46006;SDS011;31738;50.188;8.524;2023-05-10T12:30:37;1.92;;;0.90;;
46006;SDS011;31738;50.188;8.524;2023-05-10T12:33:10;1.95;;;1.10;;
46006;SDS011;31738;50.188;8.524;2023-05-10T12:35:44;2.92;;;1.00;;
46006;SDS011;31738;50.188;8.524;2023-05-10T12:40:50;3.17;;;0.90;;
46006;SDS011;31738;50.188;8.524;2023-05-10T12:43:15;2.17;;;0.80;;
46006;SDS011;31738;50.188;8.524;2023-05-10T12:45:41;2.65;;;0.90;;
46006;SDS011;31738;50.188;8.524;2023-05-10T12:48:06;3.88;;;0.90;;
46006;SDS011;31738;50.188;8.524;2023-05-10T12:50:32;3.20;;;1.10;;
46006;SDS011;31738;50.188;8.524;2023-05-10T12:52:57;3.47;;;0.80;;
46006;SDS011;31738;50.188;8.524;2023-05-10T12:55:22;6.28;;;0.80;;
46006;SDS011;31738;50.188;8.524;2023-05-10T12:57:48;2.78;;;1.00;;
46006;SDS011;31738;50.188;8.524;2023-05-10T13:00:14;3.55;;;0.90;;
46006;SDS011;31738;50.188;8.524;2023-05-10T13:02:40;1.83;;;1.23;;
46006;SDS011;31738;50.188;8.524;2023-05-10T13:05:05;4.28;;;1.10;;
46006;SDS011;31738;50.188;8.524;2023-05-10T13:07:31;3.22;;;0.75;;
46006;SDS011;31738;50.188;8.524;2023-05-10T13:09:56;1.75;;;0.70;;
46006;SDS011;31738;50.188;8.524;2023-05-10T13:12:22;1.85;;;0.90;;
46006;SDS011;31738;50.188;8.524;2023-05-10T13:14:47;2.60;;;1.08;;
46006;SDS011;31738;50.188;8.524;2023-05-10T13:17:13;1.88;;;1.17;;
46006;SDS011;31738;50.188;8.524;2023-05-10T13:19:38;2.58;;;1.00;;
46006;SDS011;31738;50.188;8.524;2023-05-10T13:22:04;1.75;;;1.00;;
46006;SDS011;31738;50.188;8.524;2023-05-10T13:24:29;2.35;;;1.17;;
46006;SDS011;31738;50.188;8.524;2023-05-10T13:26:55;4.85;;;1.20;;
46006;SDS011;31738;50.188;8.524;2023-05-10T13:29:20;3.55;;;0.93;;
46006;SDS011;31738;50.188;8.524;2023-05-10T13:31:47;3.85;;;1.20;;
46006;SDS011;31738;50.188;8.524;2023-05-10T13:34:13;2.85;;;1.10;;
46006;SDS011;31738;50.188;8.524;2023-05-10T13:36:38;2.00;;;1.13;;
46006;SDS011;31738;50.188;8.524;2023-05-10T13:39:04;5.07;;;1.23;;
46006;SDS011;31738;50.188;8.524;2023-05-10T13:41:30;2.97;;;1.25;;
46006;SDS011;31738;50.188;8.524;2023-05-10T13:43:56;1.48;;;1.17;;
46006;SDS011;31738;50.188;8.524;2023-05-10T13:46:21;3.65;;;1.08;;
46006;SDS011;31738;50.188;8.524;2023-05-10T13:48:47;5.38;;;1.17;;
46006;SDS011;31738;50.188;8.524;2023-05-10T13:51:12;3.33;;;1.10;;
46006;SDS011;31738;50.188;8.524;2023-05-10T13:53:37;3.35;;;1.10;;
46006;SDS011;31738;50.188;8.524;2023-05-10T13:56:03;1.13;;;1.02;;
46006;SDS011;31738;50.188;8.524;2023-05-10T13:58:28;3.45;;;1.50;;
46006;SDS011;31738;50.188;8.524;2023-05-10T14:00:54;1.25;;;0.80;;
46006;SDS011;31738;50.188;8.524;2023-05-10T14:03:19;3.58;;;0.93;;
46006;SDS011;31738;50.188;8.524;2023-05-10T14:05:45;3.15;;;0.90;;
46006;SDS011;31738;50.188;8.524;2023-05-10T14:08:10;1.88;;;0.90;;
46006;SDS011;31738;50.188;8.524;2023-05-10T14:10:38;4.25;;;1.00;;
46006;SDS011;31738;50.188;8.524;2023-05-10T14:13:04;3.33;;;1.10;;
46006;SDS011;31738;50.188;8.524;2023-05-10T14:15:30;2.15;;;1.10;;
46006;SDS011;31738;50.188;8.524;2023-05-10T14:17:55;1.95;;;0.90;;
46006;SDS011;31738;50.188;8.524;2023-05-10T14:20:21;3.05;;;0.68;;
46006;SDS011;31738;50.188;8.524;2023-05-10T14:22:46;6.40;;;1.48;;
46006;SDS011;31738;50.188;8.524;2023-05-10T14:25:12;1.05;;;0.80;;
46006;SDS011;31738;50.188;8.524;2023-05-10T14:27:38;1.95;;;0.75;;
46006;SDS011;31738;50.188;8.524;2023-05-10T14:30:03;5.78;;;0.80;;
46006;SDS011;31738;50.188;8.524;2023-05-10T14:32:29;1.15;;;0.70;;
46006;SDS011;31738;50.188;8.524;2023-05-10T14:34:57;2.55;;;0.80;;
46006;SDS011;31738;50.188;8.524;2023-05-10T14:37:22;2.75;;;0.88;;
46006;SDS011;31738;50.188;8.524;2023-05-10T14:39:48;1.10;;;0.60;;
46006;SDS011;31738;50.188;8.524;2023-05-10T14:42:13;1.30;;;0.60;;
46006;SDS011;31738;50.188;8.524;2023-05-10T14:44:38;1.65;;;0.75;;
46006;SDS011;31738;50.188;8.524;2023-05-10T14:47:04;2.08;;;0.75;;
46006;SDS011;31738;50.188;8.524;2023-05-10T14:49:30;0.98;;;0.63;;
46006;SDS011;31738;50.188;8.524;2023-05-10T14:51:55;1.50;;;0.85;;
46006;SDS011;31738;50.188;8.524;2023-05-10T14:54:21;2.35;;;0.60;;
46006;SDS011;31738;50.188;8.524;2023-05-10T14:56:46;0.80;;;0.70;;
46006;SDS011;31738;50.188;8.524;2023-05-10T14:59:14;2.05;;;0.50;;
46006;SDS011;31738;50.188;8.524;2023-05-10T15:01:40;1.85;;;0.73;;
46006;SDS011;31738;50.188;8.524;2023-05-10T15:04:07;1.75;;;0.50;;
46006;SDS011;31738;50.188;8.524;2023-05-10T15:06:33;3.25;;;1.05;;
46006;SDS011;31738;50.188;8.524;2023-05-10T15:09:00;2.00;;;0.60;;
46006;SDS011;31738;50.188;8.524;2023-05-10T15:11:26;0.95;;;0.70;;
46006;SDS011;31738;50.188;8.524;2023-05-10T15:13:52;2.15;;;0.90;;
46006;SDS011;31738;50.188;8.524;2023-05-10T15:16:18;1.83;;;0.68;;
46006;SDS011;31738;50.188;8.524;2023-05-10T15:18:44;7.43;;;0.98;;